Time;durP1;ratioP1;P1;durP2;ratioP2;P2;SDS_P1;SDS_P2;PMS_P1;PMS_P2;Temp;Humidity;BMP_temperature;BMP_pressure;BME280_temperature;BME280_humidity;BME280_pressure;Samples;Min_cycle;Max_cycle;Signal;HPM_P1;HPM_P2
2022/10/22 00:00:12;;;;;;;0.40;0.40;;;14.50;99.90;;;;;;4992450;28;20246;-66
2022/10/22 00:03:00;;;;;;;0.40;0.40;;;14.50;99.90;;;;;;4993262;28;20422;-65
2022/10/22 00:05:49;;;;;;;0.40;0.40;;;14.50;99.90;;;;;;4992511;28;20317;-65
2022/10/22 00:08:37;;;;;;;0.40;0.40;;;14.50;99.90;;;;;;4992616;28;20219;-65
2022/10/22 00:11:25;;;;;;;0.40;0.40;;;14.50;99.90;;;;;;4992280;28;20334;-66
2022/10/22 00:14:14;;;;;;;0.40;0.40;;;14.50;99.90;;;;;;4993175;28;20334;-66
2022/10/22 00:17:02;;;;;;;0.40;0.40;;;14.50;99.90;;;;;;5001742;28;20234;-65
2022/10/22 00:19:57;;;;;;;0.40;0.40;;;14.50;99.90;;;;;;5007213;28;20219;-65
2022/10/22 00:22:46;;;;;;;0.40;0.40;;;14.60;99.90;;;;;;4998319;28;20450;-65
2022/10/22 00:25:35;;;;;;;0.40;0.40;;;14.30;99.90;;;;;;4993964;28;20203;-64
2022/10/22 00:28:24;;;;;;;0.40;0.40;;;14.40;99.90;;;;;;4993681;28;20247;-66
2022/10/22 00:31:14;;;;;;;0.40;0.40;;;14.30;99.90;;;;;;4992818;28;20303;-66
2022/10/22 00:34:02;;;;;;;0.40;0.40;;;14.60;99.90;;;;;;4992436;28;20278;-66
2022/10/22 00:36:51;;;;;;;0.40;0.40;;;14.40;99.90;;;;;;4992649;28;20623;-66
2022/10/22 00:39:41;;;;;;;0.40;0.40;;;14.40;99.90;;;;;;4992099;28;20609;-66
2022/10/22 00:42:29;;;;;;;0.40;0.40;;;14.30;99.90;;;;;;4992542;28;20239;-65
2022/10/22 00:45:23;;;;;;;0.40;0.40;;;14.30;99.90;;;;;;4994948;28;20254;-65
2022/10/22 00:48:13;;;;;;;0.40;0.40;;;14.30;99.90;;;;;;4995277;28;20238;-66
2022/10/22 00:51:03;;;;;;;0.40;0.40;;;14.30;99.90;;;;;;4995482;28;20358;-66
2022/10/22 00:53:55;;;;;;;0.40;0.40;;;14.30;99.90;;;;;;4995524;28;20331;-65
2022/10/22 00:56:45;;;;;;;0.40;0.40;;;14.20;99.90;;;;;;4996237;28;20239;-66
2022/10/22 00:59:34;;;;;;;0.40;0.40;;;14.30;99.90;;;;;;4995384;28;20270;-66
2022/10/22 01:02:22;;;;;;;0.40;0.40;;;14.30;99.90;;;;;;4997014;28;20246;-66
2022/10/22 01:05:10;;;;;;;0.40;0.40;;;14.30;99.90;;;;;;4992714;28;20293;-66
2022/10/22 01:07:59;;;;;;;0.40;0.40;;;14.30;99.90;;;;;;4994333;28;20341;-66
2022/10/22 01:10:57;;;;;;;0.40;0.40;;;14.30;99.90;;;;;;4994861;28;20235;-66
2022/10/22 01:13:54;;;;;;;0.40;0.40;;;14.30;99.90;;;;;;4995597;28;20282;-66
2022/10/22 01:16:49;;;;;;;0.40;0.40;;;14.40;99.90;;;;;;4995111;28;20214;-65
2022/10/22 01:20:03;;;;;;;0.40;0.40;;;14.30;99.90;;;;;;4995271;28;20525;-66
2022/10/22 01:23:02;;;;;;;0.40;0.40;;;14.30;99.90;;;;;;4995290;28;20199;-64
2022/10/22 01:25:58;;;;;;;0.40;0.40;;;14.30;99.90;;;;;;4995614;28;20729;-67
2022/10/22 01:28:58;;;;;;;0.40;0.40;;;14.30;99.90;;;;;;4995805;28;20279;-65
2022/10/22 01:31:52;;;;;;;0.40;0.40;;;14.30;99.90;;;;;;4995356;28;20210;-64
2022/10/22 01:34:44;;;;;;;0.40;0.40;;;14.30;99.90;;;;;;4996819;28;20422;-65
2022/10/22 01:37:36;;;;;;;0.40;0.40;;;14.20;99.90;;;;;;4995292;28;20227;-64
2022/10/22 01:40:26;;;;;;;0.40;0.40;;;14.20;99.90;;;;;;4996551;28;20222;-66
2022/10/22 01:43:15;;;;;;;0.40;0.40;;;14.20;99.90;;;;;;4996240;28;20419;-64
2022/10/22 01:46:06;;;;;;;0.40;0.40;;;14.20;99.90;;;;;;4994663;28;20247;-64
2022/10/22 01:49:17;;;;;;;0.40;0.40;;;14.20;99.90;;;;;;4994476;28;20727;-64
2022/10/22 01:52:15;;;;;;;0.40;0.40;;;14.20;99.90;;;;;;4994728;28;20282;-64
2022/10/22 01:55:17;;;;;;;0.40;0.40;;;14.20;99.90;;;;;;4996044;28;20329;-64
2022/10/22 01:58:19;;;;;;;0.40;0.40;;;14.10;99.90;;;;;;4994485;28;20207;-65
2022/10/22 02:01:16;;;;;;;0.40;0.40;;;14.10;99.90;;;;;;4994646;28;20222;-64
2022/10/22 02:04:11;;;;;;;0.40;0.40;;;13.70;99.90;;;;;;4995897;28;20714;-65
2022/10/22 02:07:04;;;;;;;0.40;0.40;;;14.10;99.90;;;;;;4995731;28;20210;-65
2022/10/22 02:09:54;;;;;;;0.40;0.40;;;14.10;99.90;;;;;;4995802;28;20557;-64
2022/10/22 02:12:43;;;;;;;0.40;0.40;;;14.40;99.90;;;;;;4995424;28;20208;-64
2022/10/22 02:15:35;;;;;;;0.40;0.40;;;14.20;99.90;;;;;;4995107;28;20458;-65
2022/10/22 02:18:28;;;;;;;0.40;0.40;;;14.10;99.90;;;;;;4995681;28;20518;-64
2022/10/22 02:21:16;;;;;;;0.40;0.40;;;14.10;99.90;;;;;;4995220;28;20274;-64
2022/10/22 02:24:05;;;;;;;0.40;0.40;;;14.10;99.90;;;;;;4994434;28;20210;-67
2022/10/22 02:27:01;;;;;;;0.40;0.40;;;14.10;99.90;;;;;;4994049;28;20199;-66
2022/10/22 02:29:56;;;;;;;0.40;0.40;;;14.10;99.90;;;;;;4993304;28;20291;-66
2022/10/22 02:32:50;;;;;;;0.40;0.40;;;14.10;99.90;;;;;;4992691;28;20455;-66
2022/10/22 02:35:41;;;;;;;0.40;0.40;;;14.00;99.90;;;;;;4994636;28;20290;-66
2022/10/22 02:38:30;;;;;;;0.40;0.40;;;14.10;99.90;;;;;;4993966;28;20454;-65
2022/10/22 02:41:19;;;;;;;0.40;0.40;;;14.10;99.90;;;;;;4994206;28;20423;-65
2022/10/22 02:44:09;;;;;;;0.40;0.40;;;14.10;99.90;;;;;;4994114;28;20265;-66
2022/10/22 02:46:58;;;;;;;0.40;0.40;;;14.10;99.90;;;;;;4994136;28;20682;-66
2022/10/22 02:49:47;;;;;;;0.40;0.40;;;14.00;99.90;;;;;;4993521;28;20537;-66
2022/10/22 02:52:36;;;;;;;0.40;0.40;;;14.10;99.90;;;;;;4997557;28;20200;-66
2022/10/22 02:55:24;;;;;;;0.40;0.40;;;14.10;99.90;;;;;;4997662;28;20522;-65
2022/10/22 02:58:13;;;;;;;0.73;0.73;;;14.10;99.90;;;;;;4997873;28;20292;-66
2022/10/22 03:01:01;;;;;;;0.40;0.40;;;14.10;99.90;;;;;;4995702;28;20671;-65
2022/10/22 03:03:49;;;;;;;0.40;0.40;;;14.10;99.90;;;;;;5001245;28;20525;-63
2022/10/22 03:06:37;;;;;;;0.40;0.40;;;14.10;99.90;;;;;;4995576;28;20514;-65
2022/10/22 03:09:26;;;;;;;0.40;0.40;;;14.00;99.90;;;;;;4996336;28;20471;-66
2022/10/22 03:12:14;;;;;;;0.40;0.40;;;14.00;99.90;;;;;;4994212;28;20558;-67
2022/10/22 03:15:02;;;;;;;0.40;0.40;;;14.00;99.90;;;;;;4992945;28;20269;-66
2022/10/22 03:17:50;;;;;;;0.40;0.40;;;14.00;99.90;;;;;;4993086;28;20592;-66
2022/10/22 03:20:38;;;;;;;0.40;0.40;;;14.00;99.90;;;;;;4993315;28;20445;-66
2022/10/22 03:23:26;;;;;;;0.40;0.40;;;14.00;99.90;;;;;;4993945;28;20510;-66
2022/10/22 03:26:16;;;;;;;0.40;0.40;;;14.00;99.90;;;;;;4994032;28;20878;-67
2022/10/22 03:29:04;;;;;;;0.40;0.40;;;13.90;99.90;;;;;;4992748;28;20533;-64
2022/10/22 03:31:53;;;;;;;0.40;0.40;;;13.90;99.90;;;;;;4993321;28;20784;-66
2022/10/22 03:34:41;;;;;;;0.40;0.40;;;13.90;99.90;;;;;;4993285;28;20726;-66
2022/10/22 03:37:29;;;;;;;0.40;0.40;;;13.80;99.90;;;;;;4994095;28;20203;-66
2022/10/22 03:40:18;;;;;;;0.40;0.40;;;13.90;99.90;;;;;;4992703;28;20443;-66
2022/10/22 03:43:07;;;;;;;0.40;0.40;;;13.90;99.90;;;;;;4992770;28;20234;-66
2022/10/22 03:45:55;;;;;;;0.40;0.40;;;13.90;99.90;;;;;;4992334;28;20203;-66
2022/10/22 03:48:43;;;;;;;0.40;0.40;;;13.90;99.90;;;;;;4992185;28;20966;-66
2022/10/22 03:51:31;;;;;;;0.40;0.40;;;13.90;99.90;;;;;;4993006;28;20478;-66
2022/10/22 03:54:19;;;;;;;0.40;0.40;;;13.90;99.90;;;;;;4992814;28;20214;-65
2022/10/22 03:57:08;;;;;;;0.40;0.40;;;14.00;99.90;;;;;;4992289;28;20570;-66
2022/10/22 03:59:58;;;;;;;0.40;0.40;;;13.90;99.90;;;;;;4993443;28;20822;-65
2022/10/22 04:02:46;;;;;;;0.40;0.40;;;13.80;99.90;;;;;;4992802;28;20522;-65
2022/10/22 04:05:34;;;;;;;0.40;0.40;;;13.90;99.90;;;;;;4995932;28;20860;-65
2022/10/22 04:08:22;;;;;;;0.40;0.40;;;13.90;99.90;;;;;;5002071;28;20503;-64
2022/10/22 04:11:11;;;;;;;0.40;0.40;;;13.90;99.90;;;;;;5012628;28;20522;-64
2022/10/22 04:13:59;;;;;;;0.40;0.40;;;13.90;99.90;;;;;;5005858;28;20925;-64
2022/10/22 04:16:48;;;;;;;0.40;0.40;;;13.90;99.90;;;;;;4993469;28;20803;-63
2022/10/22 04:19:36;;;;;;;0.40;0.40;;;13.80;99.90;;;;;;4994890;28;20443;-65
2022/10/22 04:22:24;;;;;;;0.40;0.40;;;13.80;99.90;;;;;;4996488;28;20521;-65
2022/10/22 04:25:13;;;;;;;0.40;0.40;;;13.70;99.90;;;;;;4996363;28;20509;-65
2022/10/22 04:28:01;;;;;;;0.40;0.40;;;13.70;99.90;;;;;;4998115;28;20435;-65
2022/10/22 04:30:49;;;;;;;0.40;0.40;;;13.80;99.90;;;;;;5056920;22;20239;-67
2022/10/22 04:33:38;;;;;;;0.40;0.40;;;13.60;99.90;;;;;;5054015;28;20201;-69
2022/10/22 04:36:28;;;;;;;0.40;0.40;;;13.80;99.90;;;;;;5053809;28;20519;-68
2022/10/22 04:39:16;;;;;;;0.50;0.50;;;13.70;99.90;;;;;;5054593;28;20527;-69
2022/10/22 04:42:04;;;;;;;0.40;0.40;;;13.70;99.90;;;;;;5055636;28;20994;-70
2022/10/22 04:44:52;;;;;;;0.40;0.40;;;13.80;99.90;;;;;;5054380;28;20683;-67
2022/10/22 04:47:40;;;;;;;0.40;0.40;;;13.90;99.90;;;;;;5054697;28;20430;-69
2022/10/22 04:50:30;;;;;;;0.40;0.40;;;13.80;99.90;;;;;;5054618;28;20472;-65
2022/10/22 04:53:18;;;;;;;0.40;0.40;;;13.80;99.90;;;;;;5054823;28;20432;-68
2022/10/22 04:56:08;;;;;;;0.40;0.40;;;13.80;99.90;;;;;;5054571;28;20424;-71
2022/10/22 04:58:58;;;;;;;0.40;0.40;;;13.70;99.90;;;;;;5074842;28;20433;-67
2022/10/22 05:01:46;;;;;;;0.40;0.40;;;13.70;99.90;;;;;;5074487;28;20503;-67
2022/10/22 05:04:34;;;;;;;0.40;0.40;;;13.80;99.90;;;;;;5074800;28;20419;-67
2022/10/22 05:07:24;;;;;;;0.40;0.40;;;13.60;99.90;;;;;;5074327;28;20534;-67
2022/10/22 05:10:12;;;;;;;0.40;0.40;;;13.70;99.90;;;;;;5074858;28;20439;-66
2022/10/22 05:13:00;;;;;;;0.40;0.40;;;13.70;99.90;;;;;;5073467;28;20820;-68
2022/10/22 05:15:48;;;;;;;0.40;0.40;;;13.80;99.90;;;;;;5074844;28;20951;-69
2022/10/22 05:18:36;;;;;;;0.40;0.40;;;13.70;99.90;;;;;;5073418;28;20430;-66
2022/10/22 05:21:25;;;;;;;0.40;0.40;;;13.70;99.90;;;;;;5074791;28;20542;-65
2022/10/22 05:24:14;;;;;;;0.40;0.40;;;13.60;99.90;;;;;;5074444;28;20507;-66
2022/10/22 05:27:02;;;;;;;0.40;0.40;;;13.60;99.90;;;;;;5074496;28;20427;-68
2022/10/22 05:29:50;;;;;;;0.40;0.40;;;13.60;99.90;;;;;;5073310;28;20979;-68
2022/10/22 05:32:38;;;;;;;0.40;0.40;;;13.60;99.90;;;;;;5072762;28;20431;-68
2022/10/22 05:35:26;;;;;;;0.40;0.40;;;13.50;99.90;;;;;;5073233;28;20573;-66
2022/10/22 05:38:14;;;;;;;0.40;0.40;;;13.50;99.90;;;;;;5073681;28;20425;-65
2022/10/22 05:41:06;;;;;;;0.40;0.40;;;13.50;99.90;;;;;;5074466;28;20527;-69
2022/10/22 05:43:55;;;;;;;0.40;0.40;;;13.60;99.90;;;;;;5074001;28;20518;-67
2022/10/22 05:46:43;;;;;;;0.40;0.40;;;13.60;99.90;;;;;;5074951;28;20419;-67
2022/10/22 05:49:31;;;;;;;0.40;0.40;;;13.50;99.90;;;;;;5073173;28;20709;-68
2022/10/22 05:52:20;;;;;;;0.40;0.40;;;13.50;99.90;;;;;;5073741;28;20463;-66
2022/10/22 05:55:08;;;;;;;0.40;0.40;;;13.50;99.90;;;;;;5074741;28;20958;-66
2022/10/22 05:57:57;;;;;;;0.40;0.40;;;13.50;99.90;;;;;;5058586;28;20425;-68
2022/10/22 06:00:45;;;;;;;0.40;0.40;;;13.50;99.90;;;;;;5053228;28;20491;-66
2022/10/22 06:03:33;;;;;;;0.40;0.40;;;13.50;99.90;;;;;;5053970;28;20428;-65
2022/10/22 06:06:26;;;;;;;0.40;0.40;;;13.40;99.90;;;;;;5053183;28;20205;-66
2022/10/22 06:09:17;;;;;;;0.47;0.47;;;13.50;99.90;;;;;;5053090;28;20523;-67
2022/10/22 06:12:08;;;;;;;0.40;0.40;;;13.50;99.90;;;;;;5053552;28;20817;-66
2022/10/22 06:14:57;;;;;;;0.40;0.40;;;13.50;99.90;;;;;;5052990;28;20443;-65
2022/10/22 06:17:46;;;;;;;0.40;0.40;;;13.40;99.90;;;;;;5053008;28;20521;-68
2022/10/22 06:20:34;;;;;;;0.40;0.40;;;13.50;99.90;;;;;;5052485;28;20826;-68
2022/10/22 06:23:22;;;;;;;0.40;0.40;;;13.50;99.90;;;;;;5053602;28;20424;-68
2022/10/22 06:26:10;;;;;;;2.30;2.10;;;13.50;99.90;;;;;;5052935;28;20430;-67
2022/10/22 06:28:59;;;;;;;0.40;0.40;;;13.50;99.90;;;;;;5053401;28;20511;-66
2022/10/22 06:31:48;;;;;;;0.40;0.40;;;13.50;99.90;;;;;;5052401;28;20494;-68
2022/10/22 06:34:36;;;;;;;0.40;0.40;;;13.50;99.90;;;;;;5052541;28;20896;-69
2022/10/22 06:37:24;;;;;;;0.40;0.40;;;13.60;99.90;;;;;;5052484;28;20866;-67
2022/10/22 06:40:13;;;;;;;0.40;0.40;;;13.60;99.90;;;;;;5051582;28;20470;-67
2022/10/22 06:43:01;;;;;;;0.40;0.40;;;13.60;99.90;;;;;;5052132;28;20820;-66
2022/10/22 06:45:49;;;;;;;0.40;0.40;;;13.70;99.90;;;;;;5052195;28;20430;-67
2022/10/22 06:48:39;;;;;;;0.40;0.40;;;13.70;99.90;;;;;;5052379;28;20534;-67
2022/10/22 06:51:27;;;;;;;0.50;0.50;;;13.80;99.90;;;;;;5052220;28;20336;-66
2022/10/22 06:54:15;;;;;;;0.40;0.40;;;13.80;99.90;;;;;;5052051;28;20208;-67
2022/10/22 06:57:04;;;;;;;0.40;0.40;;;13.80;99.90;;;;;;5059838;28;20975;-66
2022/10/22 06:59:52;;;;;;;0.40;0.40;;;13.90;99.90;;;;;;5070947;28;20303;-66
2022/10/22 07:02:40;;;;;;;0.40;0.40;;;13.90;99.90;;;;;;5072487;28;20732;-69
2022/10/22 07:05:30;;;;;;;0.40;0.40;;;13.90;99.90;;;;;;5072927;28;20200;-67
2022/10/22 07:08:18;;;;;;;0.40;0.40;;;13.90;99.90;;;;;;5072939;28;20425;-69
2022/10/22 07:11:07;;;;;;;0.40;0.40;;;14.00;99.90;;;;;;5072400;28;20442;-66
2022/10/22 07:13:57;;;;;;;0.40;0.40;;;14.00;99.90;;;;;;5071082;28;20423;-68
2022/10/22 07:16:45;;;;;;;0.40;0.40;;;14.10;99.90;;;;;;5072985;28;20773;-65
2022/10/22 07:19:34;;;;;;;0.40;0.40;;;14.10;99.90;;;;;;5070491;28;20429;-68
2022/10/22 07:22:23;;;;;;;0.40;0.40;;;14.10;99.90;;;;;;5071063;28;20419;-65
2022/10/22 07:25:11;;;;;;;0.40;0.40;;;14.10;99.90;;;;;;5072613;28;20843;-67
2022/10/22 07:27:59;;;;;;;0.40;0.40;;;14.20;99.90;;;;;;5071441;28;20208;-68
2022/10/22 07:30:47;;;;;;;0.40;0.40;;;14.20;99.90;;;;;;5072105;28;20573;-67
2022/10/22 07:33:36;;;;;;;0.40;0.40;;;;;;;;;;5071888;28;20546;-66
2022/10/22 07:36:25;;;;;;;0.40;0.40;;;14.20;99.90;;;;;;5072381;28;20810;-64
2022/10/22 07:39:14;;;;;;;0.40;0.40;;;14.30;99.90;;;;;;5071157;28;20460;-69
2022/10/22 07:42:02;;;;;;;0.40;0.40;;;14.30;99.90;;;;;;5071044;28;20423;-66
2022/10/22 07:44:50;;;;;;;0.50;0.50;;;14.30;99.90;;;;;;5072910;28;20427;-66
2022/10/22 07:47:38;;;;;;;0.40;0.40;;;14.30;99.90;;;;;;5072412;28;20514;-68
2022/10/22 07:50:27;;;;;;;0.40;0.40;;;14.40;99.90;;;;;;5070490;28;20439;-66
2022/10/22 07:53:15;;;;;;;0.40;0.40;;;14.40;99.90;;;;;;5071939;28;20216;-65
2022/10/22 07:56:05;;;;;;;0.40;0.40;;;14.40;99.90;;;;;;5076532;28;20425;-65
2022/10/22 07:58:53;;;;;;;0.40;0.40;;;14.40;99.90;;;;;;5036362;28;20194;-67
2022/10/22 08:01:41;;;;;;;0.40;0.40;;;14.40;99.90;;;;;;5036425;28;20435;-66
2022/10/22 08:04:29;;;;;;;0.40;0.40;;;14.50;99.90;;;;;;5035338;28;20212;-66
2022/10/22 08:07:17;;;;;;;0.40;0.40;;;14.50;99.90;;;;;;5037155;28;20519;-65
2022/10/22 08:10:06;;;;;;;0.40;0.40;;;14.50;99.90;;;;;;5036007;28;20456;-66
2022/10/22 08:12:56;;;;;;;0.40;0.40;;;14.50;99.90;;;;;;5036098;28;20547;-68
2022/10/22 08:15:45;;;;;;;0.40;0.40;;;14.60;99.90;;;;;;5035852;28;20281;-67
2022/10/22 08:18:33;;;;;;;0.40;0.40;;;14.60;99.90;;;;;;5036755;28;20787;-67
2022/10/22 08:21:21;;;;;;;0.40;0.40;;;14.60;99.90;;;;;;5036093;28;20992;-66
2022/10/22 08:24:10;;;;;;;0.40;0.40;;;14.60;99.90;;;;;;5035916;28;20474;-67
2022/10/22 08:26:58;;;;;;;0.40;0.40;;;14.60;99.90;;;;;;5036393;28;20423;-69
2022/10/22 08:29:47;;;;;;;0.40;0.40;;;14.60;99.90;;;;;;5035913;28;20702;-65
2022/10/22 08:32:35;;;;;;;0.50;0.50;;;14.60;99.90;;;;;;5035908;28;20594;-67
2022/10/22 08:35:23;;;;;;;0.40;0.40;;;14.70;99.90;;;;;;5036216;28;20431;-67
2022/10/22 08:38:11;;;;;;;0.40;0.40;;;14.70;99.90;;;;;;5035985;28;20425;-68
2022/10/22 08:41:07;;;;;;;0.40;0.40;;;14.70;99.90;;;;;;5033644;28;20576;-66
2022/10/22 08:44:24;;;;;;;0.40;0.40;;;14.80;99.90;;;;;;5035344;28;20975;-66
2022/10/22 08:47:27;;;;;;;0.40;0.40;;;14.90;99.90;;;;;;5035866;28;20286;-67
2022/10/22 08:50:22;;;;;;;0.40;0.40;;;14.90;99.90;;;;;;5034087;28;20971;-70
2022/10/22 08:53:14;;;;;;;1.90;1.80;;;15.00;99.90;;;;;;5035384;28;20599;-66
2022/10/22 08:56:02;;;;;;;0.40;0.40;;;15.00;99.90;;;;;;5034916;28;20429;-66
2022/10/22 08:58:56;;;;;;;0.40;0.40;;;15.10;99.90;;;;;;5053794;28;20573;-65
2022/10/22 09:01:47;;;;;;;0.40;0.40;;;15.10;99.90;;;;;;5054678;28;20212;-66
2022/10/22 09:04:42;;;;;;;0.40;0.40;;;15.20;99.90;;;;;;5054156;28;20416;-67
2022/10/22 09:07:30;;;;;;;0.40;0.40;;;15.20;99.90;;;;;;5053053;28;20424;-66
2022/10/22 09:10:20;;;;;;;0.40;0.40;;;15.30;99.90;;;;;;5054333;28;20221;-66
2022/10/22 09:13:10;;;;;;;0.40;0.40;;;15.40;99.90;;;;;;5054176;28;20301;-66
2022/10/22 09:16:05;;;;;;;0.40;0.40;;;15.40;99.90;;;;;;5053978;28;20251;-67
2022/10/22 09:19:05;;;;;;;0.40;0.40;;;15.50;99.90;;;;;;5054385;28;20329;-65
2022/10/22 09:22:02;;;;;;;0.40;0.40;;;15.50;99.90;;;;;;5054430;28;20212;-69
2022/10/22 09:24:56;;;;;;;0.40;0.40;;;15.60;99.90;;;;;;5054279;28;20198;-66
2022/10/22 09:27:44;;;;;;;0.40;0.40;;;15.70;99.90;;;;;;5054274;28;20284;-68
2022/10/22 09:30:36;;;;;;;0.40;0.40;;;15.80;99.90;;;;;;5053155;28;20423;-66
2022/10/22 09:33:27;;;;;;;0.40;0.40;;;15.90;99.90;;;;;;5054024;28;20229;-66
2022/10/22 09:36:18;;;;;;;0.40;0.40;;;16.00;99.90;;;;;;5054139;28;20200;-66
2022/10/22 09:39:22;;;;;;;0.70;0.70;;;15.90;99.90;;;;;;5053886;28;20208;-68
2022/10/22 09:42:18;;;;;;;2.00;0.63;;;16.00;99.90;;;;;;5053798;28;20208;-65
2022/10/22 09:45:15;;;;;;;2.30;2.10;;;16.00;99.90;;;;;;5053715;28;20658;-67
2022/10/22 09:48:11;;;;;;;0.40;0.40;;;16.00;99.90;;;;;;5053368;28;20228;-69
2022/10/22 09:51:05;;;;;;;0.40;0.40;;;16.00;99.90;;;;;;5053333;28;20902;-65
2022/10/22 09:53:57;;;;;;;0.40;0.40;;;16.00;99.90;;;;;;5053386;28;20209;-68
2022/10/22 09:56:58;;;;;;;0.40;0.40;;;16.10;99.90;;;;;;5058983;28;20197;-66
2022/10/22 09:59:49;;;;;;;1.73;1.63;;;16.10;99.90;;;;;;5073148;28;20299;-66
2022/10/22 10:02:40;;;;;;;0.40;0.40;;;16.10;99.90;;;;;;5072723;28;20280;-69
2022/10/22 10:05:31;;;;;;;0.40;0.40;;;16.20;99.90;;;;;;5074058;28;20207;-67
2022/10/22 10:08:19;;;;;;;0.40;0.40;;;16.10;99.90;;;;;;5073366;28;20605;-68
2022/10/22 10:11:14;;;;;;;0.40;0.40;;;16.10;99.90;;;;;;5073607;28;20223;-65
2022/10/22 10:14:12;;;;;;;0.40;0.40;;;16.10;99.90;;;;;;5072616;28;20290;-66
2022/10/22 10:17:05;;;;;;;0.40;0.40;;;16.10;99.90;;;;;;5072882;28;20672;-67
2022/10/22 10:20:03;;;;;;;0.40;0.40;;;16.10;99.90;;;;;;5073325;28;20729;-66
2022/10/22 10:22:58;;;;;;;2.58;2.47;;;16.00;99.90;;;;;;5073710;28;20220;-67
2022/10/22 10:25:54;;;;;;;1.07;0.90;;;16.00;99.90;;;;;;5071822;28;20673;-68
2022/10/22 10:28:59;;;;;;;0.50;0.50;;;16.00;99.90;;;;;;5073520;28;20197;-66
2022/10/22 10:32:06;;;;;;;0.40;0.40;;;15.90;99.90;;;;;;5073328;28;20573;-66
2022/10/22 10:35:03;;;;;;;0.40;0.40;;;15.90;99.90;;;;;;5073181;28;20247;-66
2022/10/22 10:38:08;;;;;;;1.05;0.98;;;15.90;99.90;;;;;;5072559;28;20284;-66
2022/10/22 10:41:03;;;;;;;0.40;0.40;;;16.00;99.90;;;;;;5072291;28;20615;-67
2022/10/22 10:44:11;;;;;;;2.20;1.90;;;16.00;99.90;;;;;;5072044;28;20189;-66
2022/10/22 10:47:12;;;;;;;0.40;0.40;;;16.10;99.90;;;;;;5072629;28;20201;-67
2022/10/22 10:50:17;;;;;;;0.40;0.40;;;16.20;99.90;;;;;;5072627;28;20693;-66
2022/10/22 10:53:14;;;;;;;1.27;1.17;;;16.20;99.90;;;;;;5072415;28;20594;-66
2022/10/22 10:56:14;;;;;;;1.40;1.30;;;16.30;99.90;;;;;;5071829;28;20201;-66
2022/10/22 10:59:13;;;;;;;2.10;1.27;;;16.40;99.90;;;;;;5033498;28;20209;-65
2022/10/22 11:02:21;;;;;;;0.50;0.50;;;16.40;99.90;;;;;;5031980;28;20584;-69
2022/10/22 11:05:41;;;;;;;0.40;0.40;;;16.40;99.90;;;;;;5032875;28;20212;-66
2022/10/22 11:08:32;;;;;;;0.40;0.40;;;16.50;99.90;;;;;;5009810;28;20203;-68
2022/10/22 11:11:26;;;;;;;0.40;0.40;;;16.60;99.90;;;;;;5031873;28;20702;-69
2022/10/22 11:14:19;;;;;;;0.40;0.40;;;16.60;99.90;;;;;;5032881;28;20837;-66
2022/10/22 11:17:14;;;;;;;0.60;0.60;;;16.60;99.90;;;;;;5032658;28;20736;-69
2022/10/22 11:20:12;;;;;;;0.40;0.40;;;16.70;99.90;;;;;;5031723;28;20214;-68
2022/10/22 11:23:04;;;;;;;0.40;0.40;;;16.80;99.90;;;;;;5032659;28;20194;-69
2022/10/22 11:26:15;;;;;;;0.57;0.57;;;16.80;99.90;;;;;;5032143;28;20280;-66
2022/10/22 11:29:07;;;;;;;0.40;0.40;;;16.80;99.90;;;;;;5032463;28;20342;-66
2022/10/22 11:31:56;;;;;;;0.40;0.40;;;16.90;99.90;;;;;;5032323;28;20740;-68
2022/10/22 11:34:50;;;;;;;0.40;0.40;;;16.90;99.90;;;;;;5032482;28;20222;-66
2022/10/22 11:37:38;;;;;;;0.40;0.40;;;16.90;99.90;;;;;;5032677;28;20202;-68
2022/10/22 11:40:34;;;;;;;0.40;0.40;;;17.00;99.90;;;;;;5032097;28;20275;-66
2022/10/22 11:43:28;;;;;;;0.63;0.63;;;17.00;99.90;;;;;;5032534;28;20197;-68
2022/10/22 11:46:28;;;;;;;0.40;0.40;;;17.10;99.90;;;;;;5032386;28;20293;-68
2022/10/22 11:49:23;;;;;;;0.47;0.47;;;17.10;99.90;;;;;;5032163;28;20208;-66
2022/10/22 11:52:27;;;;;;;0.40;0.40;;;17.20;99.90;;;;;;5031764;28;20198;-66
2022/10/22 11:55:33;;;;;;;0.63;0.63;;;17.20;99.90;;;;;;5032295;28;20308;-68
2022/10/22 11:58:32;;;;;;;0.40;0.40;;;17.30;99.90;;;;;;5069474;28;20283;-68
2022/10/22 12:01:25;;;;;;;0.60;0.60;;;17.30;99.90;;;;;;5070032;28;20301;-70
2022/10/22 12:04:20;;;;;;;2.60;2.40;;;17.30;99.90;;;;;;5072452;28;20204;-66
2022/10/22 12:07:32;;;;;;;0.40;0.40;;;17.40;99.90;;;;;;5071633;28;20204;-68
2022/10/22 12:10:22;;;;;;;0.50;0.50;;;17.40;99.90;;;;;;5070667;28;20212;-66
2022/10/22 12:13:13;;;;;;;0.40;0.40;;;17.50;99.90;;;;;;5071064;28;20582;-66
2022/10/22 12:16:04;;;;;;;0.40;0.40;;;17.50;99.90;;;;;;5071586;28;20206;-67
2022/10/22 12:19:00;;;;;;;0.60;0.60;;;17.50;99.90;;;;;;5070773;28;20201;-68
2022/10/22 12:21:52;;;;;;;0.40;0.40;;;17.00;99.90;;;;;;5071405;28;20200;-66
2022/10/22 12:24:45;;;;;;;0.40;0.40;;;17.60;99.90;;;;;;5070874;28;20197;-68
2022/10/22 12:27:36;;;;;;;6.03;3.03;;;17.70;99.90;;;;;;5071496;28;20471;-68
2022/10/22 12:30:26;;;;;;;0.40;0.40;;;17.70;99.90;;;;;;5070148;28;20228;-66
2022/10/22 12:33:20;;;;;;;0.40;0.40;;;17.80;99.90;;;;;;5071353;28;20283;-69
2022/10/22 12:36:15;;;;;;;0.50;0.50;;;17.80;99.90;;;;;;5071373;28;20697;-68
2022/10/22 12:39:10;;;;;;;0.40;0.40;;;17.90;99.90;;;;;;5071401;28;20209;-72
2022/10/22 12:42:00;;;;;;;0.40;0.40;;;17.90;99.90;;;;;;5074550;28;20208;-68
2022/10/22 12:44:48;;;;;;;0.40;0.40;;;17.90;99.90;;;;;;5075318;28;20692;-66
2022/10/22 12:47:36;;;;;;;0.40;0.40;;;18.00;99.90;;;;;;5078730;28;20279;-67
2022/10/22 12:50:31;;;;;;;0.45;0.45;;;18.10;99.90;;;;;;5076705;28;20221;-69
2022/10/22 12:53:23;;;;;;;1.98;1.23;;;18.10;99.90;;;;;;5073633;28;20279;-66
2022/10/22 12:56:14;;;;;;;0.40;0.40;;;18.20;99.90;;;;;;5073868;28;20225;-66
2022/10/22 12:59:07;;;;;;;0.40;0.40;;;18.30;99.90;;;;;;5054884;28;20287;-69
2022/10/22 13:01:56;;;;;;;0.40;0.40;;;18.30;99.90;;;;;;5055042;28;20571;-65
2022/10/22 13:05:14;;;;;;;0.40;0.40;;;18.40;99.90;;;;;;5054342;28;20272;-67
2022/10/22 13:08:07;;;;;;;0.40;0.40;;;18.50;99.90;;;;;;5054852;28;20284;-67
2022/10/22 13:10:55;;;;;;;1.25;1.25;;;18.60;99.90;;;;;;5054313;28;20217;-70
2022/10/22 13:13:44;;;;;;;1.02;1.02;;;18.70;99.90;;;;;;5054238;28;20197;-67
2022/10/22 13:16:33;;;;;;;0.40;0.40;;;18.80;99.90;;;;;;5054144;28;20358;-69
2022/10/22 13:19:47;;;;;;;0.50;0.50;;;18.80;99.90;;;;;;5054463;28;20276;-69
2022/10/22 13:22:37;;;;;;;0.40;0.40;;;18.80;99.90;;;;;;5054138;28;20194;-70
2022/10/22 13:25:28;;;;;;;0.50;0.50;;;18.80;99.90;;;;;;5053906;28;20627;-69
2022/10/22 13:28:20;;;;;;;0.40;0.40;;;18.80;99.90;;;;;;5054013;28;20209;-66
2022/10/22 13:31:11;;;;;;;1.95;1.95;;;18.90;99.90;;;;;;5053714;28;20229;-67
2022/10/22 13:34:05;;;;;;;0.40;0.40;;;18.90;99.90;;;;;;5053340;28;20435;-66
2022/10/22 13:36:58;;;;;;;0.40;0.40;;;19.00;99.90;;;;;;5053581;28;20201;-66
2022/10/22 13:39:46;;;;;;;0.40;0.40;;;19.10;99.90;;;;;;5054002;28;20244;-65
2022/10/22 13:42:34;;;;;;;0.80;0.60;;;19.20;99.90;;;;;;5054937;28;20201;-66
2022/10/22 13:45:22;;;;;;;0.40;0.40;;;19.30;99.90;;;;;;5054048;28;20674;-66
2022/10/22 13:48:15;;;;;;;0.60;0.60;;;19.40;99.90;;;;;;5053881;28;20204;-67
2022/10/22 13:51:06;;;;;;;0.40;0.40;;;19.30;99.90;;;;;;5053190;28;20228;-67
2022/10/22 13:53:54;;;;;;;0.40;0.40;;;19.20;99.90;;;;;;5053692;28;20223;-66
2022/10/22 13:57:02;;;;;;;0.40;0.40;;;19.30;99.90;;;;;;5059205;28;20220;-65
2022/10/22 14:00:17;;;;;;;0.40;0.40;;;19.40;99.90;;;;;;5070606;28;20696;-66
2022/10/22 14:03:11;;;;;;;0.50;0.50;;;19.60;99.90;;;;;;5055821;28;20194;-65
2022/10/22 14:06:00;;;;;;;0.40;0.40;;;19.90;99.90;;;;;;5055358;28;20342;-66
2022/10/22 14:08:54;;;;;;;0.40;0.40;;;20.20;99.90;;;;;;5055312;28;20205;-65
2022/10/22 14:11:43;;;;;;;2.03;1.38;;;20.50;99.90;;;;;;5055188;28;20205;-65
2022/10/22 14:14:31;;;;;;;0.40;0.40;;;20.60;99.90;;;;;;5055825;28;20603;-65
2022/10/22 14:17:19;;;;;;;0.70;0.60;;;20.90;99.90;;;;;;5055217;28;20674;-66
2022/10/22 14:20:14;;;;;;;0.40;0.40;;;21.30;99.90;;;;;;5055100;28;20225;-65
2022/10/22 14:23:21;;;;;;;0.40;0.40;;;21.30;99.90;;;;;;5055636;28;20224;-66
2022/10/22 14:26:19;;;;;;;0.40;0.40;;;21.20;99.90;;;;;;5055297;28;20203;-66
2022/10/22 14:29:07;;;;;;;0.40;0.40;;;21.40;99.90;;;;;;5054782;28;20284;-66
2022/10/22 14:31:58;;;;;;;0.40;0.40;;;21.80;99.90;;;;;;5055016;28;20670;-65
2022/10/22 14:34:46;;;;;;;0.40;0.40;;;21.80;99.90;;;;;;5055026;28;20224;-64
2022/10/22 14:37:34;;;;;;;0.40;0.40;;;21.40;99.90;;;;;;5054527;28;20690;-66
2022/10/22 14:40:25;;;;;;;0.40;0.40;;;21.00;99.90;;;;;;5053488;28;20217;-65
2022/10/22 14:43:21;;;;;;;0.40;0.40;;;20.60;99.90;;;;;;5054141;28;20201;-66
2022/10/22 14:46:13;;;;;;;0.40;0.40;;;20.20;99.90;;;;;;5053974;28;20247;-66
2022/10/22 14:49:02;;;;;;;0.40;0.40;;;19.90;99.90;;;;;;5053561;28;20201;-66
2022/10/22 14:51:50;;;;;;;0.40;0.40;;;19.70;99.90;;;;;;5053565;28;20201;-67
2022/10/22 14:54:38;;;;;;;0.40;0.40;;;19.50;99.90;;;;;;5053262;28;20704;-65